sensor_id;sensor_type;location;lat;lon;timestamp;P1;durP1;ratioP1;P2;durP2;ratioP2
28766;SDS011;15921;52.034;20.650;2023-10-31T00:01:17;29.85;;;14.35;;
28766;SDS011;15921;52.034;20.650;2023-10-31T00:03:43;31.42;;;14.98;;
28766;SDS011;15921;52.034;20.650;2023-10-31T00:06:09;31.67;;;16.15;;
28766;SDS011;15921;52.034;20.650;2023-10-31T00:08:35;32.63;;;14.85;;
28766;SDS011;15921;52.034;20.650;2023-10-31T00:11:01;34.38;;;14.93;;
28766;SDS011;15921;52.034;20.650;2023-10-31T00:13:26;25.60;;;15.38;;
28766;SDS011;15921;52.034;20.650;2023-10-31T00:15:52;29.20;;;14.98;;
28766;SDS011;15921;52.034;20.650;2023-10-31T00:18:18;29.85;;;14.95;;
28766;SDS011;15921;52.034;20.650;2023-10-31T00:20:44;33.65;;;16.05;;
28766;SDS011;15921;52.034;20.650;2023-10-31T00:23:11;27.90;;;15.35;;
28766;SDS011;15921;52.034;20.650;2023-10-31T00:25:37;41.30;;;16.25;;
28766;SDS011;15921;52.034;20.650;2023-10-31T00:28:03;33.47;;;15.13;;
28766;SDS011;15921;52.034;20.650;2023-10-31T00:30:29;27.75;;;14.35;;
28766;SDS011;15921;52.034;20.650;2023-10-31T00:32:54;29.90;;;16.33;;
28766;SDS011;15921;52.034;20.650;2023-10-31T00:35:20;28.30;;;15.32;;
28766;SDS011;15921;52.034;20.650;2023-10-31T00:37:46;29.05;;;14.43;;
28766;SDS011;15921;52.034;20.650;2023-10-31T00:40:11;28.65;;;15.40;;
28766;SDS011;15921;52.034;20.650;2023-10-31T00:42:38;27.60;;;15.02;;
28766;SDS011;15921;52.034;20.650;2023-10-31T00:45:05;39.78;;;15.75;;
28766;SDS011;15921;52.034;20.650;2023-10-31T00:47:32;33.08;;;15.75;;
28766;SDS011;15921;52.034;20.650;2023-10-31T00:49:57;31.42;;;15.80;;
28766;SDS011;15921;52.034;20.650;2023-10-31T00:52:23;30.30;;;15.98;;
28766;SDS011;15921;52.034;20.650;2023-10-31T00:54:49;29.80;;;15.65;;
28766;SDS011;15921;52.034;20.650;2023-10-31T00:57:14;33.70;;;14.93;;
28766;SDS011;15921;52.034;20.650;2023-10-31T00:59:40;29.70;;;15.57;;
28766;SDS011;15921;52.034;20.650;2023-10-31T01:02:06;30.17;;;15.98;;
28766;SDS011;15921;52.034;20.650;2023-10-31T01:04:32;26.92;;;14.77;;
28766;SDS011;15921;52.034;20.650;2023-10-31T01:06:57;30.45;;;14.75;;
28766;SDS011;15921;52.034;20.650;2023-10-31T01:09:23;29.48;;;15.32;;
28766;SDS011;15921;52.034;20.650;2023-10-31T01:11:49;36.42;;;15.52;;
28766;SDS011;15921;52.034;20.650;2023-10-31T01:14:14;27.92;;;14.70;;
28766;SDS011;15921;52.034;20.650;2023-10-31T01:16:40;26.10;;;13.93;;
28766;SDS011;15921;52.034;20.650;2023-10-31T01:19:06;31.77;;;14.30;;
28766;SDS011;15921;52.034;20.650;2023-10-31T01:21:32;29.90;;;15.63;;
28766;SDS011;15921;52.034;20.650;2023-10-31T01:23:58;24.67;;;13.57;;
28766;SDS011;15921;52.034;20.650;2023-10-31T01:26:24;30.20;;;14.15;;
28766;SDS011;15921;52.034;20.650;2023-10-31T01:28:50;24.02;;;12.40;;
28766;SDS011;15921;52.034;20.650;2023-10-31T01:31:16;29.70;;;13.02;;
28766;SDS011;15921;52.034;20.650;2023-10-31T01:33:42;30.48;;;13.95;;
28766;SDS011;15921;52.034;20.650;2023-10-31T01:36:08;28.67;;;14.48;;
28766;SDS011;15921;52.034;20.650;2023-10-31T01:38:35;24.55;;;12.02;;
28766;SDS011;15921;52.034;20.650;2023-10-31T01:41:01;26.38;;;13.25;;
28766;SDS011;15921;52.034;20.650;2023-10-31T01:48:27;28.80;;;13.18;;
28766;SDS011;15921;52.034;20.650;2023-10-31T01:50:55;26.67;;;13.13;;
28766;SDS011;15921;52.034;20.650;2023-10-31T01:53:23;26.33;;;13.60;;
28766;SDS011;15921;52.034;20.650;2023-10-31T01:55:50;28.33;;;13.73;;
28766;SDS011;15921;52.034;20.650;2023-10-31T01:58:17;23.65;;;12.60;;
28766;SDS011;15921;52.034;20.650;2023-10-31T02:00:46;25.40;;;13.27;;
28766;SDS011;15921;52.034;20.650;2023-10-31T02:03:12;25.80;;;13.68;;
28766;SDS011;15921;52.034;20.650;2023-10-31T02:05:39;25.15;;;12.55;;
28766;SDS011;15921;52.034;20.650;2023-10-31T02:08:05;21.90;;;11.80;;
28766;SDS011;15921;52.034;20.650;2023-10-31T02:10:33;30.60;;;12.77;;
28766;SDS011;15921;52.034;20.650;2023-10-31T02:13:09;24.55;;;12.40;;
28766;SDS011;15921;52.034;20.650;2023-10-31T02:15:36;29.08;;;12.93;;
28766;SDS011;15921;52.034;20.650;2023-10-31T02:18:02;27.08;;;12.55;;
28766;SDS011;15921;52.034;20.650;2023-10-31T02:20:28;20.33;;;11.93;;
28766;SDS011;15921;52.034;20.650;2023-10-31T02:22:54;23.92;;;12.85;;
28766;SDS011;15921;52.034;20.650;2023-10-31T02:25:19;22.17;;;11.75;;
28766;SDS011;15921;52.034;20.650;2023-10-31T02:27:45;23.23;;;11.70;;
28766;SDS011;15921;52.034;20.650;2023-10-31T02:30:11;25.85;;;12.02;;
28766;SDS011;15921;52.034;20.650;2023-10-31T02:32:37;23.58;;;12.32;;
28766;SDS011;15921;52.034;20.650;2023-10-31T02:35:03;30.70;;;11.63;;
28766;SDS011;15921;52.034;20.650;2023-10-31T02:37:29;23.40;;;11.65;;
28766;SDS011;15921;52.034;20.650;2023-10-31T02:39:55;22.95;;;11.80;;
28766;SDS011;15921;52.034;20.650;2023-10-31T02:42:20;23.30;;;11.18;;
28766;SDS011;15921;52.034;20.650;2023-10-31T02:44:46;24.33;;;12.02;;
28766;SDS011;15921;52.034;20.650;2023-10-31T02:47:12;26.55;;;12.10;;
28766;SDS011;15921;52.034;20.650;2023-10-31T02:49:37;21.58;;;11.70;;
28766;SDS011;15921;52.034;20.650;2023-10-31T02:52:03;24.70;;;11.43;;
28766;SDS011;15921;52.034;20.650;2023-10-31T02:54:29;28.27;;;12.40;;
28766;SDS011;15921;52.034;20.650;2023-10-31T02:56:54;25.00;;;11.77;;
28766;SDS011;15921;52.034;20.650;2023-10-31T02:59:20;28.27;;;10.65;;
28766;SDS011;15921;52.034;20.650;2023-10-31T03:01:45;21.98;;;10.88;;
28766;SDS011;15921;52.034;20.650;2023-10-31T03:04:11;26.02;;;10.85;;
28766;SDS011;15921;52.034;20.650;2023-10-31T03:06:37;21.92;;;10.52;;
28766;SDS011;15921;52.034;20.650;2023-10-31T03:09:03;19.92;;;9.10;;
28766;SDS011;15921;52.034;20.650;2023-10-31T03:11:29;18.30;;;9.55;;
28766;SDS011;15921;52.034;20.650;2023-10-31T03:13:54;17.80;;;9.48;;
28766;SDS011;15921;52.034;20.650;2023-10-31T03:16:21;19.25;;;9.20;;
28766;SDS011;15921;52.034;20.650;2023-10-31T03:18:47;22.05;;;9.38;;
28766;SDS011;15921;52.034;20.650;2023-10-31T03:21:13;18.00;;;9.50;;
28766;SDS011;15921;52.034;20.650;2023-10-31T03:23:40;17.70;;;9.55;;
28766;SDS011;15921;52.034;20.650;2023-10-31T03:26:11;17.17;;;9.00;;
28766;SDS011;15921;52.034;20.650;2023-10-31T03:28:36;19.38;;;8.48;;
28766;SDS011;15921;52.034;20.650;2023-10-31T03:31:02;18.50;;;8.85;;
28766;SDS011;15921;52.034;20.650;2023-10-31T03:33:28;18.23;;;8.98;;
28766;SDS011;15921;52.034;20.650;2023-10-31T03:35:54;17.15;;;8.63;;
28766;SDS011;15921;52.034;20.650;2023-10-31T03:38:19;19.67;;;7.82;;
28766;SDS011;15921;52.034;20.650;2023-10-31T03:40:48;13.57;;;7.93;;
28766;SDS011;15921;52.034;20.650;2023-10-31T03:43:14;19.05;;;8.43;;
28766;SDS011;15921;52.034;20.650;2023-10-31T03:45:40;18.27;;;8.65;;
28766;SDS011;15921;52.034;20.650;2023-10-31T03:48:05;19.05;;;7.68;;
28766;SDS011;15921;52.034;20.650;2023-10-31T03:50:31;16.83;;;7.65;;
28766;SDS011;15921;52.034;20.650;2023-10-31T03:52:57;14.18;;;7.38;;
28766;SDS011;15921;52.034;20.650;2023-10-31T03:55:22;16.67;;;7.70;;
28766;SDS011;15921;52.034;20.650;2023-10-31T03:57:48;16.05;;;7.75;;
28766;SDS011;15921;52.034;20.650;2023-10-31T04:00:14;24.30;;;7.65;;
28766;SDS011;15921;52.034;20.650;2023-10-31T04:02:40;13.75;;;6.75;;
28766;SDS011;15921;52.034;20.650;2023-10-31T04:05:06;16.98;;;7.25;;
28766;SDS011;15921;52.034;20.650;2023-10-31T04:07:32;16.08;;;6.55;;
28766;SDS011;15921;52.034;20.650;2023-10-31T04:09:58;12.90;;;6.22;;
28766;SDS011;15921;52.034;20.650;2023-10-31T04:12:23;15.27;;;6.78;;
28766;SDS011;15921;52.034;20.650;2023-10-31T04:14:49;15.10;;;6.45;;
28766;SDS011;15921;52.034;20.650;2023-10-31T04:17:15;15.05;;;6.45;;
28766;SDS011;15921;52.034;20.650;2023-10-31T04:19:40;11.98;;;6.40;;
28766;SDS011;15921;52.034;20.650;2023-10-31T04:22:06;10.77;;;6.38;;
28766;SDS011;15921;52.034;20.650;2023-10-31T04:24:32;13.90;;;6.40;;
28766;SDS011;15921;52.034;20.650;2023-10-31T04:26:57;12.88;;;5.80;;
28766;SDS011;15921;52.034;20.650;2023-10-31T04:29:23;14.20;;;6.50;;
28766;SDS011;15921;52.034;20.650;2023-10-31T04:31:49;11.57;;;6.53;;
28766;SDS011;15921;52.034;20.650;2023-10-31T04:34:14;19.65;;;8.82;;
28766;SDS011;15921;52.034;20.650;2023-10-31T04:36:40;19.42;;;9.70;;
28766;SDS011;15921;52.034;20.650;2023-10-31T04:39:06;18.38;;;10.18;;
28766;SDS011;15921;52.034;20.650;2023-10-31T04:41:31;18.02;;;9.60;;
28766;SDS011;15921;52.034;20.650;2023-10-31T04:43:57;22.48;;;10.90;;
28766;SDS011;15921;52.034;20.650;2023-10-31T04:46:24;21.67;;;10.45;;
28766;SDS011;15921;52.034;20.650;2023-10-31T04:48:52;20.85;;;8.45;;
28766;SDS011;15921;52.034;20.650;2023-10-31T04:51:18;14.35;;;7.00;;
28766;SDS011;15921;52.034;20.650;2023-10-31T04:53:44;15.18;;;6.25;;
28766;SDS011;15921;52.034;20.650;2023-10-31T04:56:13;11.30;;;5.70;;
28766;SDS011;15921;52.034;20.650;2023-10-31T04:58:43;10.93;;;4.88;;
28766;SDS011;15921;52.034;20.650;2023-10-31T05:01:10;12.73;;;5.18;;
28766;SDS011;15921;52.034;20.650;2023-10-31T05:03:37;11.82;;;4.57;;
28766;SDS011;15921;52.034;20.650;2023-10-31T05:06:03;13.00;;;4.80;;
28766;SDS011;15921;52.034;20.650;2023-10-31T05:08:29;9.98;;;4.85;;
28766;SDS011;15921;52.034;20.650;2023-10-31T05:10:56;11.88;;;4.55;;
28766;SDS011;15921;52.034;20.650;2023-10-31T05:13:22;10.32;;;4.35;;
28766;SDS011;15921;52.034;20.650;2023-10-31T05:15:48;10.30;;;4.40;;
28766;SDS011;15921;52.034;20.650;2023-10-31T05:18:14;13.60;;;4.68;;
28766;SDS011;15921;52.034;20.650;2023-10-31T05:20:40;9.00;;;4.07;;
28766;SDS011;15921;52.034;20.650;2023-10-31T05:23:06;12.52;;;5.13;;
28766;SDS011;15921;52.034;20.650;2023-10-31T05:25:32;15.55;;;5.15;;
28766;SDS011;15921;52.034;20.650;2023-10-31T05:27:57;13.70;;;5.40;;
28766;SDS011;15921;52.034;20.650;2023-10-31T05:30:24;13.10;;;5.70;;
28766;SDS011;15921;52.034;20.650;2023-10-31T05:32:50;9.35;;;4.97;;
28766;SDS011;15921;52.034;20.650;2023-10-31T05:35:16;12.35;;;4.78;;
28766;SDS011;15921;52.034;20.650;2023-10-31T05:37:43;11.23;;;4.82;;
28766;SDS011;15921;52.034;20.650;2023-10-31T05:40:09;12.77;;;4.53;;
28766;SDS011;15921;52.034;20.650;2023-10-31T05:42:35;7.85;;;4.13;;
28766;SDS011;15921;52.034;20.650;2023-10-31T05:45:01;14.38;;;4.53;;
28766;SDS011;15921;52.034;20.650;2023-10-31T05:47:26;10.48;;;4.03;;
28766;SDS011;15921;52.034;20.650;2023-10-31T05:49:53;10.20;;;4.07;;
28766;SDS011;15921;52.034;20.650;2023-10-31T05:52:18;11.85;;;3.92;;
28766;SDS011;15921;52.034;20.650;2023-10-31T05:54:44;10.02;;;4.57;;
28766;SDS011;15921;52.034;20.650;2023-10-31T05:57:10;9.50;;;4.05;;
28766;SDS011;15921;52.034;20.650;2023-10-31T05:59:36;10.98;;;4.70;;
28766;SDS011;15921;52.034;20.650;2023-10-31T06:02:02;8.90;;;4.35;;
28766;SDS011;15921;52.034;20.650;2023-10-31T06:04:28;7.85;;;4.18;;
28766;SDS011;15921;52.034;20.650;2023-10-31T06:06:53;7.45;;;4.25;;
28766;SDS011;15921;52.034;20.650;2023-10-31T06:09:19;12.90;;;4.45;;
28766;SDS011;15921;52.034;20.650;2023-10-31T06:11:45;14.75;;;4.53;;
28766;SDS011;15921;52.034;20.650;2023-10-31T06:14:12;8.80;;;3.97;;
28766;SDS011;15921;52.034;20.650;2023-10-31T06:16:41;9.07;;;4.00;;
28766;SDS011;15921;52.034;20.650;2023-10-31T06:19:07;11.30;;;3.92;;
28766;SDS011;15921;52.034;20.650;2023-10-31T06:21:33;12.38;;;4.10;;
28766;SDS011;15921;52.034;20.650;2023-10-31T06:23:59;10.77;;;4.38;;
28766;SDS011;15921;52.034;20.650;2023-10-31T06:26:25;9.40;;;4.30;;
28766;SDS011;15921;52.034;20.650;2023-10-31T06:28:50;7.88;;;4.13;;
28766;SDS011;15921;52.034;20.650;2023-10-31T06:31:16;5.43;;;3.47;;
28766;SDS011;15921;52.034;20.650;2023-10-31T06:33:42;10.38;;;4.25;;
28766;SDS011;15921;52.034;20.650;2023-10-31T06:36:07;11.13;;;4.35;;
28766;SDS011;15921;52.034;20.650;2023-10-31T06:38:33;6.47;;;3.80;;
28766;SDS011;15921;52.034;20.650;2023-10-31T06:40:59;9.95;;;4.57;;
28766;SDS011;15921;52.034;20.650;2023-10-31T06:43:25;11.57;;;4.30;;
28766;SDS011;15921;52.034;20.650;2023-10-31T06:45:51;9.05;;;4.53;;
28766;SDS011;15921;52.034;20.650;2023-10-31T06:48:16;6.88;;;4.03;;
28766;SDS011;15921;52.034;20.650;2023-10-31T06:50:42;11.60;;;4.35;;
28766;SDS011;15921;52.034;20.650;2023-10-31T06:53:08;13.30;;;4.95;;
28766;SDS011;15921;52.034;20.650;2023-10-31T06:55:33;10.02;;;4.03;;
28766;SDS011;15921;52.034;20.650;2023-10-31T06:57:59;11.48;;;4.10;;
28766;SDS011;15921;52.034;20.650;2023-10-31T07:00:25;11.70;;;5.00;;
28766;SDS011;15921;52.034;20.650;2023-10-31T07:02:52;12.95;;;4.70;;
28766;SDS011;15921;52.034;20.650;2023-10-31T07:05:18;10.23;;;4.70;;
28766;SDS011;15921;52.034;20.650;2023-10-31T07:07:45;11.20;;;4.57;;
28766;SDS011;15921;52.034;20.650;2023-10-31T07:10:11;10.82;;;3.88;;
28766;SDS011;15921;52.034;20.650;2023-10-31T07:12:37;17.48;;;4.63;;
28766;SDS011;15921;52.034;20.650;2023-10-31T07:15:03;14.68;;;5.10;;
28766;SDS011;15921;52.034;20.650;2023-10-31T07:17:29;11.70;;;5.13;;
28766;SDS011;15921;52.034;20.650;2023-10-31T07:19:55;15.07;;;5.10;;
28766;SDS011;15921;52.034;20.650;2023-10-31T07:22:21;12.82;;;4.03;;
28766;SDS011;15921;52.034;20.650;2023-10-31T07:24:49;8.32;;;4.20;;
28766;SDS011;15921;52.034;20.650;2023-10-31T07:27:16;10.82;;;4.60;;
28766;SDS011;15921;52.034;20.650;2023-10-31T07:29:42;12.48;;;4.25;;
28766;SDS011;15921;52.034;20.650;2023-10-31T07:32:08;7.90;;;4.18;;
28766;SDS011;15921;52.034;20.650;2023-10-31T07:34:34;9.60;;;4.38;;
28766;SDS011;15921;52.034;20.650;2023-10-31T07:37:00;7.57;;;4.40;;
28766;SDS011;15921;52.034;20.650;2023-10-31T07:39:25;9.30;;;4.65;;
28766;SDS011;15921;52.034;20.650;2023-10-31T07:41:51;7.95;;;3.90;;
28766;SDS011;15921;52.034;20.650;2023-10-31T07:44:17;6.60;;;3.78;;
28766;SDS011;15921;52.034;20.650;2023-10-31T07:46:42;11.68;;;4.03;;
28766;SDS011;15921;52.034;20.650;2023-10-31T07:49:09;8.40;;;3.90;;
28766;SDS011;15921;52.034;20.650;2023-10-31T07:51:34;10.43;;;3.65;;
28766;SDS011;15921;52.034;20.650;2023-10-31T07:54:00;9.65;;;3.72;;
28766;SDS011;15921;52.034;20.650;2023-10-31T07:56:26;10.63;;;4.07;;
28766;SDS011;15921;52.034;20.650;2023-10-31T07:58:52;10.40;;;3.60;;
28766;SDS011;15921;52.034;20.650;2023-10-31T08:01:18;11.85;;;4.25;;
28766;SDS011;15921;52.034;20.650;2023-10-31T08:03:45;8.13;;;3.58;;
28766;SDS011;15921;52.034;20.650;2023-10-31T08:06:12;8.23;;;3.78;;
28766;SDS011;15921;52.034;20.650;2023-10-31T08:08:37;10.13;;;3.80;;
28766;SDS011;15921;52.034;20.650;2023-10-31T08:11:03;10.05;;;3.97;;
28766;SDS011;15921;52.034;20.650;2023-10-31T08:13:32;11.38;;;4.13;;
28766;SDS011;15921;52.034;20.650;2023-10-31T08:15:58;11.70;;;4.28;;
28766;SDS011;15921;52.034;20.650;2023-10-31T08:18:23;9.90;;;4.05;;
28766;SDS011;15921;52.034;20.650;2023-10-31T08:20:49;7.57;;;3.92;;
28766;SDS011;15921;52.034;20.650;2023-10-31T08:23:16;10.20;;;4.03;;
28766;SDS011;15921;52.034;20.650;2023-10-31T08:25:42;7.32;;;3.90;;
28766;SDS011;15921;52.034;20.650;2023-10-31T08:28:08;8.68;;;3.60;;
28766;SDS011;15921;52.034;20.650;2023-10-31T08:30:34;10.23;;;3.70;;
28766;SDS011;15921;52.034;20.650;2023-10-31T08:33:00;13.60;;;4.18;;
28766;SDS011;15921;52.034;20.650;2023-10-31T08:35:26;8.52;;;3.60;;
28766;SDS011;15921;52.034;20.650;2023-10-31T08:37:52;12.40;;;4.10;;
28766;SDS011;15921;52.034;20.650;2023-10-31T08:40:18;8.07;;;3.90;;
28766;SDS011;15921;52.034;20.650;2023-10-31T08:42:44;10.60;;;3.47;;
28766;SDS011;15921;52.034;20.650;2023-10-31T08:45:10;10.20;;;3.70;;
28766;SDS011;15921;52.034;20.650;2023-10-31T08:47:36;7.50;;;3.42;;
28766;SDS011;15921;52.034;20.650;2023-10-31T08:50:02;6.15;;;3.60;;
28766;SDS011;15921;52.034;20.650;2023-10-31T08:52:28;7.60;;;3.47;;
28766;SDS011;15921;52.034;20.650;2023-10-31T08:54:53;5.45;;;3.05;;
28766;SDS011;15921;52.034;20.650;2023-10-31T08:57:19;13.10;;;3.78;;
28766;SDS011;15921;52.034;20.650;2023-10-31T08:59:45;10.90;;;3.35;;
28766;SDS011;15921;52.034;20.650;2023-10-31T09:02:10;10.27;;;3.55;;
28766;SDS011;15921;52.034;20.650;2023-10-31T09:04:36;7.18;;;3.55;;
28766;SDS011;15921;52.034;20.650;2023-10-31T09:07:02;8.98;;;4.03;;
28766;SDS011;15921;52.034;20.650;2023-10-31T09:09:27;11.63;;;3.72;;
28766;SDS011;15921;52.034;20.650;2023-10-31T09:11:53;9.63;;;4.18;;
28766;SDS011;15921;52.034;20.650;2023-10-31T09:14:19;10.55;;;4.15;;
28766;SDS011;15921;52.034;20.650;2023-10-31T09:16:45;12.07;;;4.22;;
28766;SDS011;15921;52.034;20.650;2023-10-31T09:19:11;11.70;;;4.10;;
28766;SDS011;15921;52.034;20.650;2023-10-31T09:21:36;9.23;;;4.55;;
28766;SDS011;15921;52.034;20.650;2023-10-31T09:24:02;11.07;;;4.47;;
28766;SDS011;15921;52.034;20.650;2023-10-31T09:26:28;13.27;;;4.85;;
28766;SDS011;15921;52.034;20.650;2023-10-31T09:28:54;15.70;;;4.60;;
28766;SDS011;15921;52.034;20.650;2023-10-31T09:31:20;10.60;;;4.40;;
28766;SDS011;15921;52.034;20.650;2023-10-31T09:33:46;9.25;;;3.95;;
28766;SDS011;15921;52.034;20.650;2023-10-31T09:36:12;9.07;;;3.90;;
28766;SDS011;15921;52.034;20.650;2023-10-31T09:38:39;11.02;;;4.07;;
28766;SDS011;15921;52.034;20.650;2023-10-31T09:41:05;15.43;;;4.82;;
28766;SDS011;15921;52.034;20.650;2023-10-31T09:43:31;10.77;;;3.90;;
28766;SDS011;15921;52.034;20.650;2023-10-31T09:45:58;9.57;;;4.47;;
28766;SDS011;15921;52.034;20.650;2023-10-31T09:48:25;9.75;;;3.85;;
28766;SDS011;15921;52.034;20.650;2023-10-31T09:50:51;8.40;;;3.33;;
28766;SDS011;15921;52.034;20.650;2023-10-31T09:53:18;9.23;;;3.53;;
28766;SDS011;15921;52.034;20.650;2023-10-31T09:55:45;8.18;;;3.50;;
28766;SDS011;15921;52.034;20.650;2023-10-31T09:58:12;9.70;;;2.95;;
28766;SDS011;15921;52.034;20.650;2023-10-31T10:00:38;8.23;;;3.17;;
28766;SDS011;15921;52.034;20.650;2023-10-31T10:03:06;10.95;;;3.15;;
28766;SDS011;15921;52.034;20.650;2023-10-31T10:05:35;11.57;;;3.30;;
28766;SDS011;15921;52.034;20.650;2023-10-31T10:08:01;11.52;;;3.50;;
28766;SDS011;15921;52.034;20.650;2023-10-31T10:10:29;7.72;;;2.78;;
28766;SDS011;15921;52.034;20.650;2023-10-31T10:12:56;6.57;;;2.80;;
28766;SDS011;15921;52.034;20.650;2023-10-31T10:15:23;11.77;;;2.67;;
28766;SDS011;15921;52.034;20.650;2023-10-31T10:17:50;7.60;;;2.63;;
28766;SDS011;15921;52.034;20.650;2023-10-31T10:20:16;8.30;;;2.75;;
28766;SDS011;15921;52.034;20.650;2023-10-31T10:22:43;6.30;;;2.63;;
28766;SDS011;15921;52.034;20.650;2023-10-31T10:25:11;8.85;;;2.55;;
28766;SDS011;15921;52.034;20.650;2023-10-31T10:27:45;14.30;;;3.15;;
28766;SDS011;15921;52.034;20.650;2023-10-31T10:30:12;4.85;;;2.42;;
28766;SDS011;15921;52.034;20.650;2023-10-31T10:32:39;6.05;;;2.72;;
28766;SDS011;15921;52.034;20.650;2023-10-31T10:35:06;10.15;;;3.15;;
28766;SDS011;15921;52.034;20.650;2023-10-31T10:37:32;10.65;;;2.95;;
28766;SDS011;15921;52.034;20.650;2023-10-31T10:40:03;7.68;;;2.97;;
28766;SDS011;15921;52.034;20.650;2023-10-31T10:42:32;7.55;;;3.05;;
28766;SDS011;15921;52.034;20.650;2023-10-31T10:45:02;5.47;;;2.47;;
28766;SDS011;15921;52.034;20.650;2023-10-31T10:47:29;10.60;;;3.13;;
28766;SDS011;15921;52.034;20.650;2023-10-31T10:49:58;4.53;;;2.42;;
28766;SDS011;15921;52.034;20.650;2023-10-31T10:52:30;7.10;;;2.50;;
28766;SDS011;15921;52.034;20.650;2023-10-31T10:55:11;5.03;;;2.28;;
28766;SDS011;15921;52.034;20.650;2023-10-31T11:00:04;7.93;;;2.92;;
28766;SDS011;15921;52.034;20.650;2023-10-31T11:02:34;4.57;;;2.35;;
28766;SDS011;15921;52.034;20.650;2023-10-31T11:05:05;10.82;;;2.70;;
28766;SDS011;15921;52.034;20.650;2023-10-31T11:07:35;9.95;;;2.60;;
28766;SDS011;15921;52.034;20.650;2023-10-31T11:10:02;13.73;;;2.40;;
28766;SDS011;15921;52.034;20.650;2023-10-31T11:12:30;6.25;;;2.72;;
28766;SDS011;15921;52.034;20.650;2023-10-31T11:14:59;6.38;;;2.67;;
28766;SDS011;15921;52.034;20.650;2023-10-31T11:17:28;12.93;;;2.88;;
28766;SDS011;15921;52.034;20.650;2023-10-31T11:19:54;10.00;;;2.75;;
28766;SDS011;15921;52.034;20.650;2023-10-31T11:22:21;8.73;;;3.20;;
28766;SDS011;15921;52.034;20.650;2023-10-31T11:24:48;8.80;;;2.75;;
28766;SDS011;15921;52.034;20.650;2023-10-31T11:27:14;9.15;;;2.65;;
28766;SDS011;15921;52.034;20.650;2023-10-31T11:29:43;9.18;;;2.53;;
28766;SDS011;15921;52.034;20.650;2023-10-31T11:32:09;10.68;;;3.15;;
28766;SDS011;15921;52.034;20.650;2023-10-31T11:34:39;6.90;;;2.65;;
28766;SDS011;15921;52.034;20.650;2023-10-31T11:37:40;8.13;;;2.45;;
28766;SDS011;15921;52.034;20.650;2023-10-31T11:42:44;6.85;;;2.67;;
28766;SDS011;15921;52.034;20.650;2023-10-31T11:45:22;5.72;;;2.45;;
28766;SDS011;15921;52.034;20.650;2023-10-31T11:47:54;5.05;;;2.03;;
28766;SDS011;15921;52.034;20.650;2023-10-31T11:50:21;10.75;;;1.95;;
28766;SDS011;15921;52.034;20.650;2023-10-31T11:55:55;5.97;;;1.67;;
28766;SDS011;15921;52.034;20.650;2023-10-31T11:58:22;11.18;;;2.13;;
28766;SDS011;15921;52.034;20.650;2023-10-31T12:01:00;5.60;;;1.75;;
28766;SDS011;15921;52.034;20.650;2023-10-31T12:03:36;5.50;;;1.67;;
28766;SDS011;15921;52.034;20.650;2023-10-31T12:06:12;4.47;;;1.52;;
28766;SDS011;15921;52.034;20.650;2023-10-31T12:08:39;6.65;;;1.58;;
28766;SDS011;15921;52.034;20.650;2023-10-31T12:11:07;4.93;;;1.40;;
28766;SDS011;15921;52.034;20.650;2023-10-31T12:13:37;4.93;;;1.50;;
28766;SDS011;15921;52.034;20.650;2023-10-31T12:16:08;3.17;;;1.60;;
28766;SDS011;15921;52.034;20.650;2023-10-31T12:18:36;6.20;;;1.77;;
28766;SDS011;15921;52.034;20.650;2023-10-31T12:21:04;2.25;;;1.33;;
28766;SDS011;15921;52.034;20.650;2023-10-31T12:23:30;2.35;;;1.45;;
28766;SDS011;15921;52.034;20.650;2023-10-31T12:25:55;6.63;;;1.92;;
28766;SDS011;15921;52.034;20.650;2023-10-31T12:28:22;4.47;;;1.67;;
28766;SDS011;15921;52.034;20.650;2023-10-31T12:30:49;2.47;;;1.30;;
28766;SDS011;15921;52.034;20.650;2023-10-31T12:33:17;2.42;;;1.30;;
28766;SDS011;15921;52.034;20.650;2023-10-31T12:35:43;2.45;;;1.40;;
28766;SDS011;15921;52.034;20.650;2023-10-31T12:38:12;4.32;;;1.80;;
28766;SDS011;15921;52.034;20.650;2023-10-31T12:40:40;3.97;;;1.70;;
28766;SDS011;15921;52.034;20.650;2023-10-31T12:43:07;2.70;;;1.65;;
28766;SDS011;15921;52.034;20.650;2023-10-31T12:45:34;3.20;;;1.27;;
28766;SDS011;15921;52.034;20.650;2023-10-31T12:48:07;2.75;;;1.70;;
28766;SDS011;15921;52.034;20.650;2023-10-31T12:50:34;3.72;;;1.52;;
28766;SDS011;15921;52.034;20.650;2023-10-31T12:53:05;2.47;;;1.65;;
28766;SDS011;15921;52.034;20.650;2023-10-31T12:55:37;4.20;;;1.88;;
28766;SDS011;15921;52.034;20.650;2023-10-31T12:58:04;2.33;;;1.60;;
28766;SDS011;15921;52.034;20.650;2023-10-31T13:00:34;3.63;;;1.52;;
28766;SDS011;15921;52.034;20.650;2023-10-31T13:03:01;5.63;;;1.50;;
28766;SDS011;15921;52.034;20.650;2023-10-31T13:05:28;2.60;;;1.63;;
28766;SDS011;15921;52.034;20.650;2023-10-31T13:07:55;3.13;;;1.75;;
28766;SDS011;15921;52.034;20.650;2023-10-31T13:10:23;2.90;;;1.27;;
28766;SDS011;15921;52.034;20.650;2023-10-31T13:12:50;1.75;;;1.17;;
28766;SDS011;15921;52.034;20.650;2023-10-31T13:15:17;3.45;;;1.60;;
28766;SDS011;15921;52.034;20.650;2023-10-31T13:17:48;3.70;;;1.85;;
28766;SDS011;15921;52.034;20.650;2023-10-31T13:20:17;5.22;;;1.60;;
28766;SDS011;15921;52.034;20.650;2023-10-31T13:22:44;2.30;;;1.52;;
28766;SDS011;15921;52.034;20.650;2023-10-31T13:25:11;6.20;;;1.45;;
28766;SDS011;15921;52.034;20.650;2023-10-31T13:27:45;3.20;;;1.60;;
28766;SDS011;15921;52.034;20.650;2023-10-31T13:30:15;3.55;;;1.65;;
28766;SDS011;15921;52.034;20.650;2023-10-31T13:32:42;4.90;;;2.05;;
28766;SDS011;15921;52.034;20.650;2023-10-31T13:35:08;2.72;;;1.83;;
28766;SDS011;15921;52.034;20.650;2023-10-31T13:37:35;2.70;;;1.50;;
28766;SDS011;15921;52.034;20.650;2023-10-31T13:40:04;3.28;;;1.48;;
28766;SDS011;15921;52.034;20.650;2023-10-31T13:42:33;4.03;;;1.70;;
28766;SDS011;15921;52.034;20.650;2023-10-31T13:44:59;4.32;;;1.80;;
28766;SDS011;15921;52.034;20.650;2023-10-31T13:47:25;3.55;;;1.42;;
28766;SDS011;15921;52.034;20.650;2023-10-31T13:49:50;4.30;;;1.92;;
28766;SDS011;15921;52.034;20.650;2023-10-31T13:52:16;4.07;;;1.75;;
28766;SDS011;15921;52.034;20.650;2023-10-31T13:54:42;4.35;;;1.60;;
28766;SDS011;15921;52.034;20.650;2023-10-31T13:57:08;4.65;;;1.70;;
28766;SDS011;15921;52.034;20.650;2023-10-31T13:59:34;3.75;;;1.70;;
28766;SDS011;15921;52.034;20.650;2023-10-31T14:02:00;1.65;;;1.30;;
28766;SDS011;15921;52.034;20.650;2023-10-31T14:04:25;2.42;;;1.40;;
28766;SDS011;15921;52.034;20.650;2023-10-31T14:06:51;2.58;;;1.60;;
28766;SDS011;15921;52.034;20.650;2023-10-31T14:09:17;2.25;;;1.52;;
28766;SDS011;15921;52.034;20.650;2023-10-31T14:11:43;6.70;;;1.52;;
28766;SDS011;15921;52.034;20.650;2023-10-31T14:14:08;2.08;;;1.55;;
28766;SDS011;15921;52.034;20.650;2023-10-31T14:16:36;3.17;;;1.70;;
28766;SDS011;15921;52.034;20.650;2023-10-31T14:19:03;3.08;;;1.55;;
28766;SDS011;15921;52.034;20.650;2023-10-31T14:21:29;2.10;;;1.27;;
28766;SDS011;15921;52.034;20.650;2023-10-31T14:23:55;5.05;;;1.60;;
28766;SDS011;15921;52.034;20.650;2023-10-31T14:26:21;2.60;;;1.80;;
28766;SDS011;15921;52.034;20.650;2023-10-31T14:28:49;2.88;;;1.83;;
28766;SDS011;15921;52.034;20.650;2023-10-31T14:31:15;4.78;;;1.63;;
28766;SDS011;15921;52.034;20.650;2023-10-31T14:33:41;3.72;;;1.75;;